sensor_id;sensor_type;location;lat;lon;timestamp;P1;durP1;ratioP1;P2;durP2;ratioP2
64957;SDS011;51486;50.232;19.208;2023-07-13T07:10:22;7.82;;;2.08;;
64957;SDS011;51486;50.232;19.208;2023-07-13T07:13:08;6.32;;;2.05;;
64957;SDS011;51486;50.232;19.208;2023-07-13T07:15:54;5.07;;;2.42;;
64957;SDS011;51486;50.232;19.208;2023-07-13T07:18:40;2.65;;;1.83;;
64957;SDS011;51486;50.232;19.208;2023-07-13T07:21:25;4.78;;;1.95;;
64957;SDS011;51486;50.232;19.208;2023-07-13T07:24:12;7.70;;;3.05;;
64957;SDS011;51486;50.232;19.208;2023-07-13T07:26:58;3.25;;;2.00;;
64957;SDS011;51486;50.232;19.208;2023-07-13T07:29:44;3.03;;;1.48;;
64957;SDS011;51486;50.232;19.208;2023-07-13T07:32:30;3.15;;;2.15;;
64957;SDS011;51486;50.232;19.208;2023-07-13T07:35:16;3.10;;;2.00;;
64957;SDS011;51486;50.232;19.208;2023-07-13T07:38:02;3.28;;;1.98;;
64957;SDS011;51486;50.232;19.208;2023-07-13T07:40:47;5.45;;;2.35;;
64957;SDS011;51486;50.232;19.208;2023-07-13T07:43:33;5.80;;;2.20;;
64957;SDS011;51486;50.232;19.208;2023-07-13T07:46:19;3.00;;;1.65;;
64957;SDS011;51486;50.232;19.208;2023-07-13T07:49:05;33.78;;;2.40;;
64957;SDS011;51486;50.232;19.208;2023-07-13T07:51:50;5.63;;;2.25;;
64957;SDS011;51486;50.232;19.208;2023-07-13T07:54:36;7.78;;;2.35;;
64957;SDS011;51486;50.232;19.208;2023-07-13T07:57:22;5.13;;;1.70;;
64957;SDS011;51486;50.232;19.208;2023-07-13T08:00:08;3.35;;;2.10;;
64957;SDS011;51486;50.232;19.208;2023-07-13T08:02:54;3.47;;;1.90;;
64957;SDS011;51486;50.232;19.208;2023-07-13T08:05:40;4.05;;;2.05;;
64957;SDS011;51486;50.232;19.208;2023-07-13T08:08:26;3.00;;;1.60;;
64957;SDS011;51486;50.232;19.208;2023-07-13T08:11:11;3.38;;;1.80;;
64957;SDS011;51486;50.232;19.208;2023-07-13T08:13:57;10.55;;;1.85;;
64957;SDS011;51486;50.232;19.208;2023-07-13T08:16:43;3.85;;;2.17;;
64957;SDS011;51486;50.232;19.208;2023-07-13T08:19:29;5.50;;;2.05;;
64957;SDS011;51486;50.232;19.208;2023-07-13T08:22:15;5.13;;;2.13;;
64957;SDS011;51486;50.232;19.208;2023-07-13T08:25:01;2.65;;;2.03;;
64957;SDS011;51486;50.232;19.208;2023-07-13T08:27:47;3.80;;;2.25;;
64957;SDS011;51486;50.232;19.208;2023-07-13T08:30:32;2.53;;;1.70;;
64957;SDS011;51486;50.232;19.208;2023-07-13T08:33:18;2.70;;;2.00;;
64957;SDS011;51486;50.232;19.208;2023-07-13T08:36:05;2.35;;;1.63;;
64957;SDS011;51486;50.232;19.208;2023-07-13T08:38:51;2.83;;;2.10;;
64957;SDS011;51486;50.232;19.208;2023-07-13T08:41:37;5.55;;;2.35;;
64957;SDS011;51486;50.232;19.208;2023-07-13T08:47:48;6.88;;;2.30;;
64957;SDS011;51486;50.232;19.208;2023-07-13T08:53:46;3.10;;;2.00;;
64957;SDS011;51486;50.232;19.208;2023-07-13T08:56:33;3.47;;;1.80;;
64957;SDS011;51486;50.232;19.208;2023-07-13T08:59:20;2.78;;;1.73;;
64957;SDS011;51486;50.232;19.208;2023-07-13T09:17:29;3.28;;;2.00;;
64957;SDS011;51486;50.232;19.208;2023-07-13T09:23:29;3.47;;;1.75;;
64957;SDS011;51486;50.232;19.208;2023-07-13T09:26:17;3.35;;;2.00;;
64957;SDS011;51486;50.232;19.208;2023-07-13T09:29:50;5.80;;;2.47;;
64957;SDS011;51486;50.232;19.208;2023-07-13T09:32:21;5.40;;;2.97;;
64957;SDS011;51486;50.232;19.208;2023-07-13T09:35:14;6.32;;;2.30;;
64957;SDS011;51486;50.232;19.208;2023-07-13T09:38:11;8.43;;;3.28;;
64957;SDS011;51486;50.232;19.208;2023-07-13T09:44:00;8.88;;;3.42;;
64957;SDS011;51486;50.232;19.208;2023-07-13T09:50:25;6.18;;;3.70;;
64957;SDS011;51486;50.232;19.208;2023-07-13T09:53:15;5.63;;;2.80;;
64957;SDS011;51486;50.232;19.208;2023-07-13T09:56:03;4.95;;;3.28;;
64957;SDS011;51486;50.232;19.208;2023-07-13T09:58:49;5.13;;;3.20;;
64957;SDS011;51486;50.232;19.208;2023-07-13T10:01:36;7.78;;;3.22;;
64957;SDS011;51486;50.232;19.208;2023-07-13T10:04:27;4.00;;;2.30;;
64957;SDS011;51486;50.232;19.208;2023-07-13T10:07:16;3.78;;;2.15;;
64957;SDS011;51486;50.232;19.208;2023-07-13T10:10:13;3.92;;;2.70;;
64957;SDS011;51486;50.232;19.208;2023-07-13T10:13:00;3.47;;;2.30;;
64957;SDS011;51486;50.232;19.208;2023-07-13T10:15:46;6.97;;;3.13;;
64957;SDS011;51486;50.232;19.208;2023-07-13T10:18:45;4.47;;;2.45;;
64957;SDS011;51486;50.232;19.208;2023-07-13T10:21:50;5.65;;;2.75;;
64957;SDS011;51486;50.232;19.208;2023-07-13T10:24:40;4.25;;;2.30;;
64957;SDS011;51486;50.232;19.208;2023-07-13T10:27:32;3.42;;;1.98;;
64957;SDS011;51486;50.232;19.208;2023-07-13T10:30:34;3.20;;;1.88;;
64957;SDS011;51486;50.232;19.208;2023-07-13T10:33:23;1.83;;;1.38;;
64957;SDS011;51486;50.232;19.208;2023-07-13T10:36:32;3.50;;;2.13;;
64957;SDS011;51486;50.232;19.208;2023-07-13T10:39:23;2.85;;;1.20;;
64957;SDS011;51486;50.232;19.208;2023-07-13T10:42:14;3.35;;;1.48;;
64957;SDS011;51486;50.232;19.208;2023-07-13T10:45:12;8.90;;;1.57;;
64957;SDS011;51486;50.232;19.208;2023-07-13T10:47:59;1.47;;;0.90;;
64957;SDS011;51486;50.232;19.208;2023-07-13T10:50:46;2.27;;;1.00;;
64957;SDS011;51486;50.232;19.208;2023-07-13T10:53:35;0.90;;;0.83;;
64957;SDS011;51486;50.232;19.208;2023-07-13T10:56:28;1.33;;;0.87;;
64957;SDS011;51486;50.232;19.208;2023-07-13T10:59:16;0.80;;;0.80;;
64957;SDS011;51486;50.232;19.208;2023-07-13T11:02:13;4.07;;;1.17;;
64957;SDS011;51486;50.232;19.208;2023-07-13T11:14:28;0.97;;;0.60;;
64957;SDS011;51486;50.232;19.208;2023-07-13T11:23:09;1.40;;;1.20;;
64957;SDS011;51486;50.232;19.208;2023-07-13T11:26:04;2.80;;;1.10;;
64957;SDS011;51486;50.232;19.208;2023-07-13T11:29:55;1.07;;;0.80;;
64957;SDS011;51486;50.232;19.208;2023-07-13T11:32:29;1.47;;;1.03;;
64957;SDS011;51486;50.232;19.208;2023-07-13T11:35:17;1.50;;;0.80;;
64957;SDS011;51486;50.232;19.208;2023-07-13T11:38:12;2.87;;;1.30;;
64957;SDS011;51486;50.232;19.208;2023-07-13T11:41:05;1.47;;;1.20;;
64957;SDS011;51486;50.232;19.208;2023-07-13T11:44:13;1.57;;;1.07;;
64957;SDS011;51486;50.232;19.208;2023-07-13T11:47:08;1.90;;;1.23;;
64957;SDS011;51486;50.232;19.208;2023-07-13T11:50:02;1.90;;;1.20;;
64957;SDS011;51486;50.232;19.208;2023-07-13T11:52:48;1.70;;;1.17;;
64957;SDS011;51486;50.232;19.208;2023-07-13T11:55:37;2.17;;;1.40;;
64957;SDS011;51486;50.232;19.208;2023-07-13T11:58:24;1.83;;;1.20;;
64957;SDS011;51486;50.232;19.208;2023-07-13T12:01:16;3.20;;;1.00;;
64957;SDS011;51486;50.232;19.208;2023-07-13T12:04:06;1.80;;;1.20;;
64957;SDS011;51486;50.232;19.208;2023-07-13T12:07:03;1.47;;;1.10;;
64957;SDS011;51486;50.232;19.208;2023-07-13T12:10:00;1.73;;;1.00;;
64957;SDS011;51486;50.232;19.208;2023-07-13T12:13:00;1.77;;;1.00;;
64957;SDS011;51486;50.232;19.208;2023-07-13T12:15:48;2.30;;;1.20;;
64957;SDS011;51486;50.232;19.208;2023-07-13T12:18:34;5.97;;;1.73;;
64957;SDS011;51486;50.232;19.208;2023-07-13T12:21:22;2.63;;;1.37;;
64957;SDS011;51486;50.232;19.208;2023-07-13T12:24:14;2.47;;;1.57;;
64957;SDS011;51486;50.232;19.208;2023-07-13T12:27:02;2.63;;;1.33;;
64957;SDS011;51486;50.232;19.208;2023-07-13T12:29:57;2.08;;;1.15;;
64957;SDS011;51486;50.232;19.208;2023-07-13T12:32:54;1.55;;;1.10;;
64957;SDS011;51486;50.232;19.208;2023-07-13T12:35:47;2.30;;;1.10;;
64957;SDS011;51486;50.232;19.208;2023-07-13T12:38:37;1.25;;;0.98;;
64957;SDS011;51486;50.232;19.208;2023-07-13T12:41:23;1.90;;;1.20;;
64957;SDS011;51486;50.232;19.208;2023-07-13T12:44:12;1.95;;;1.20;;
64957;SDS011;51486;50.232;19.208;2023-07-13T12:47:06;1.70;;;0.93;;
64957;SDS011;51486;50.232;19.208;2023-07-13T12:49:58;2.05;;;1.42;;
64957;SDS011;51486;50.232;19.208;2023-07-13T12:52:53;2.60;;;1.40;;
64957;SDS011;51486;50.232;19.208;2023-07-13T12:55:41;1.67;;;1.30;;
64957;SDS011;51486;50.232;19.208;2023-07-13T13:01:17;4.63;;;1.30;;
64957;SDS011;51486;50.232;19.208;2023-07-13T13:04:02;2.20;;;1.38;;
64957;SDS011;51486;50.232;19.208;2023-07-13T13:07:01;2.05;;;1.15;;
64957;SDS011;51486;50.232;19.208;2023-07-13T13:09:48;0.93;;;0.77;;
64957;SDS011;51486;50.232;19.208;2023-07-13T13:12:34;1.45;;;1.00;;
64957;SDS011;51486;50.232;19.208;2023-07-13T13:15:20;1.95;;;1.15;;
64957;SDS011;51486;50.232;19.208;2023-07-13T13:18:15;1.30;;;1.15;;
64957;SDS011;51486;50.232;19.208;2023-07-13T13:21:02;2.83;;;1.42;;
64957;SDS011;51486;50.232;19.208;2023-07-13T13:23:48;1.67;;;0.90;;
64957;SDS011;51486;50.232;19.208;2023-07-13T13:26:36;1.65;;;0.90;;
64957;SDS011;51486;50.232;19.208;2023-07-13T13:29:22;2.70;;;1.30;;
64957;SDS011;51486;50.232;19.208;2023-07-13T13:32:13;1.67;;;1.25;;
64957;SDS011;51486;50.232;19.208;2023-07-13T13:34:59;2.22;;;0.98;;
64957;SDS011;51486;50.232;19.208;2023-07-13T13:37:47;6.07;;;1.20;;
64957;SDS011;51486;50.232;19.208;2023-07-13T13:40:35;1.55;;;1.10;;
64957;SDS011;51486;50.232;19.208;2023-07-13T13:43:25;1.85;;;1.10;;
64957;SDS011;51486;50.232;19.208;2023-07-13T13:46:14;0.63;;;0.63;;
64957;SDS011;51486;50.232;19.208;2023-07-13T13:49:04;1.17;;;0.90;;
64957;SDS011;51486;50.232;19.208;2023-07-13T13:51:52;1.73;;;1.30;;
64957;SDS011;51486;50.232;19.208;2023-07-13T13:54:39;2.90;;;1.20;;
64957;SDS011;51486;50.232;19.208;2023-07-13T13:57:24;1.65;;;1.10;;
64957;SDS011;51486;50.232;19.208;2023-07-13T14:00:11;1.67;;;0.82;;
64957;SDS011;51486;50.232;19.208;2023-07-13T14:02:59;2.70;;;1.00;;
64957;SDS011;51486;50.232;19.208;2023-07-13T14:05:45;2.38;;;0.98;;
64957;SDS011;51486;50.232;19.208;2023-07-13T14:08:31;1.75;;;1.27;;
64957;SDS011;51486;50.232;19.208;2023-07-13T14:11:18;2.88;;;1.30;;
64957;SDS011;51486;50.232;19.208;2023-07-13T14:14:05;2.22;;;1.23;;
64957;SDS011;51486;50.232;19.208;2023-07-13T14:16:55;2.45;;;1.30;;
64957;SDS011;51486;50.232;19.208;2023-07-13T14:19:41;2.00;;;1.45;;
64957;SDS011;51486;50.232;19.208;2023-07-13T14:22:27;1.65;;;1.27;;
64957;SDS011;51486;50.232;19.208;2023-07-13T14:25:13;4.00;;;1.50;;
64957;SDS011;51486;50.232;19.208;2023-07-13T14:28:04;2.13;;;1.20;;
64957;SDS011;51486;50.232;19.208;2023-07-13T14:31:03;1.88;;;1.05;;
64957;SDS011;51486;50.232;19.208;2023-07-13T14:33:48;2.15;;;1.17;;
64957;SDS011;51486;50.232;19.208;2023-07-13T14:36:36;3.83;;;1.27;;
64957;SDS011;51486;50.232;19.208;2023-07-13T14:39:25;9.20;;;1.60;;
64957;SDS011;51486;50.232;19.208;2023-07-13T14:42:10;1.48;;;1.13;;
64957;SDS011;51486;50.232;19.208;2023-07-13T14:44:56;1.02;;;0.77;;
64957;SDS011;51486;50.232;19.208;2023-07-13T14:47:42;1.05;;;0.95;;
64957;SDS011;51486;50.232;19.208;2023-07-13T14:50:30;1.20;;;1.00;;
64957;SDS011;51486;50.232;19.208;2023-07-13T14:53:17;1.33;;;1.00;;
64957;SDS011;51486;50.232;19.208;2023-07-13T14:56:08;0.85;;;0.80;;
64957;SDS011;51486;50.232;19.208;2023-07-13T14:58:56;0.93;;;0.80;;
64957;SDS011;51486;50.232;19.208;2023-07-13T15:01:42;0.90;;;0.80;;
64957;SDS011;51486;50.232;19.208;2023-07-13T15:04:29;1.08;;;0.70;;
64957;SDS011;51486;50.232;19.208;2023-07-13T15:07:15;1.25;;;0.95;;
64957;SDS011;51486;50.232;19.208;2023-07-13T15:10:11;1.02;;;0.80;;
64957;SDS011;51486;50.232;19.208;2023-07-13T15:13:04;0.73;;;0.70;;
64957;SDS011;51486;50.232;19.208;2023-07-13T15:16:02;0.88;;;0.80;;
64957;SDS011;51486;50.232;19.208;2023-07-13T15:18:47;0.82;;;0.70;;
64957;SDS011;51486;50.232;19.208;2023-07-13T15:21:33;1.05;;;0.93;;
64957;SDS011;51486;50.232;19.208;2023-07-13T15:24:20;1.77;;;0.80;;
64957;SDS011;51486;50.232;19.208;2023-07-13T15:27:09;1.73;;;0.75;;
64957;SDS011;51486;50.232;19.208;2023-07-13T15:29:57;0.88;;;0.88;;
64957;SDS011;51486;50.232;19.208;2023-07-13T15:32:43;2.47;;;1.00;;
64957;SDS011;51486;50.232;19.208;2023-07-13T15:35:30;1.30;;;0.80;;
64957;SDS011;51486;50.232;19.208;2023-07-13T15:38:25;1.60;;;1.20;;
64957;SDS011;51486;50.232;19.208;2023-07-13T15:44:00;2.28;;;1.40;;
64957;SDS011;51486;50.232;19.208;2023-07-13T15:47:00;1.23;;;0.93;;
64957;SDS011;51486;50.232;19.208;2023-07-13T15:49:49;2.40;;;1.20;;
64957;SDS011;51486;50.232;19.208;2023-07-13T15:52:34;1.10;;;1.00;;
64957;SDS011;51486;50.232;19.208;2023-07-13T15:55:21;2.08;;;1.38;;
64957;SDS011;51486;50.232;19.208;2023-07-13T15:58:09;1.58;;;1.08;;
64957;SDS011;51486;50.232;19.208;2023-07-13T16:00:57;1.52;;;0.88;;
64957;SDS011;51486;50.232;19.208;2023-07-13T16:03:42;6.60;;;1.58;;
64957;SDS011;51486;50.232;19.208;2023-07-13T16:06:32;4.20;;;1.60;;
64957;SDS011;51486;50.232;19.208;2023-07-13T16:09:21;1.70;;;1.23;;
64957;SDS011;51486;50.232;19.208;2023-07-13T16:12:11;2.47;;;1.42;;
64957;SDS011;51486;50.232;19.208;2023-07-13T16:15:00;1.40;;;1.10;;
64957;SDS011;51486;50.232;19.208;2023-07-13T16:17:47;2.05;;;1.30;;
64957;SDS011;51486;50.232;19.208;2023-07-13T16:20:33;1.63;;;1.38;;
64957;SDS011;51486;50.232;19.208;2023-07-13T16:23:19;1.73;;;1.05;;
64957;SDS011;51486;50.232;19.208;2023-07-13T16:26:04;2.35;;;1.08;;
64957;SDS011;51486;50.232;19.208;2023-07-13T16:29:12;2.08;;;1.33;;
64957;SDS011;51486;50.232;19.208;2023-07-13T16:32:04;1.30;;;0.95;;
64957;SDS011;51486;50.232;19.208;2023-07-13T16:34:50;2.22;;;1.20;;
64957;SDS011;51486;50.232;19.208;2023-07-13T16:37:36;1.63;;;0.98;;
64957;SDS011;51486;50.232;19.208;2023-07-13T16:40:24;1.58;;;1.10;;
64957;SDS011;51486;50.232;19.208;2023-07-13T16:43:13;1.70;;;1.10;;
64957;SDS011;51486;50.232;19.208;2023-07-13T16:46:03;1.85;;;1.50;;
64957;SDS011;51486;50.232;19.208;2023-07-13T16:48:49;1.55;;;1.00;;
64957;SDS011;51486;50.232;19.208;2023-07-13T16:51:35;1.35;;;0.90;;
64957;SDS011;51486;50.232;19.208;2023-07-13T16:54:21;1.17;;;1.00;;
64957;SDS011;51486;50.232;19.208;2023-07-13T16:57:15;1.52;;;1.20;;
64957;SDS011;51486;50.232;19.208;2023-07-13T17:00:06;4.28;;;1.13;;
64957;SDS011;51486;50.232;19.208;2023-07-13T17:03:03;1.40;;;1.20;;
64957;SDS011;51486;50.232;19.208;2023-07-13T17:05:53;1.90;;;1.38;;
64957;SDS011;51486;50.232;19.208;2023-07-13T17:08:39;2.33;;;1.35;;
64957;SDS011;51486;50.232;19.208;2023-07-13T17:11:25;2.50;;;1.60;;
64957;SDS011;51486;50.232;19.208;2023-07-13T17:14:12;2.33;;;1.13;;
64957;SDS011;51486;50.232;19.208;2023-07-13T17:17:00;2.05;;;1.40;;
64957;SDS011;51486;50.232;19.208;2023-07-13T17:19:46;3.92;;;1.55;;
64957;SDS011;51486;50.232;19.208;2023-07-13T17:22:37;5.03;;;1.75;;
64957;SDS011;51486;50.232;19.208;2023-07-13T17:25:22;1.58;;;1.02;;
64957;SDS011;51486;50.232;19.208;2023-07-13T17:28:10;1.35;;;1.20;;
64957;SDS011;51486;50.232;19.208;2023-07-13T17:30:56;2.10;;;1.60;;
64957;SDS011;51486;50.232;19.208;2023-07-13T17:33:44;1.55;;;1.30;;
64957;SDS011;51486;50.232;19.208;2023-07-13T17:36:31;4.05;;;1.58;;
64957;SDS011;51486;50.232;19.208;2023-07-13T17:39:19;1.98;;;1.40;;
64957;SDS011;51486;50.232;19.208;2023-07-13T17:42:06;2.38;;;1.35;;
64957;SDS011;51486;50.232;19.208;2023-07-13T17:44:52;2.00;;;1.25;;
64957;SDS011;51486;50.232;19.208;2023-07-13T17:47:37;1.20;;;1.10;;
64957;SDS011;51486;50.232;19.208;2023-07-13T17:50:29;1.40;;;1.05;;
64957;SDS011;51486;50.232;19.208;2023-07-13T17:53:22;1.30;;;1.10;;
64957;SDS011;51486;50.232;19.208;2023-07-13T17:56:09;12.52;;;2.15;;
64957;SDS011;51486;50.232;19.208;2023-07-13T17:58:55;1.17;;;1.00;;
64957;SDS011;51486;50.232;19.208;2023-07-13T18:01:41;2.47;;;1.20;;
64957;SDS011;51486;50.232;19.208;2023-07-13T18:04:27;2.30;;;1.48;;
64957;SDS011;51486;50.232;19.208;2023-07-13T18:07:13;2.58;;;1.55;;
64957;SDS011;51486;50.232;19.208;2023-07-13T18:10:04;1.63;;;1.13;;
64957;SDS011;51486;50.232;19.208;2023-07-13T18:12:58;2.13;;;1.45;;
64957;SDS011;51486;50.232;19.208;2023-07-13T18:15:44;5.80;;;1.67;;
64957;SDS011;51486;50.232;19.208;2023-07-13T18:18:30;1.52;;;1.33;;
64957;SDS011;51486;50.232;19.208;2023-07-13T18:21:19;2.33;;;1.77;;
64957;SDS011;51486;50.232;19.208;2023-07-13T18:24:07;2.13;;;1.50;;
64957;SDS011;51486;50.232;19.208;2023-07-13T18:26:53;1.42;;;1.17;;
64957;SDS011;51486;50.232;19.208;2023-07-13T18:29:39;3.55;;;1.30;;
64957;SDS011;51486;50.232;19.208;2023-07-13T18:32:28;9.73;;;2.33;;
64957;SDS011;51486;50.232;19.208;2023-07-13T18:35:14;1.85;;;1.40;;
64957;SDS011;51486;50.232;19.208;2023-07-13T18:38:02;2.17;;;1.20;;
64957;SDS011;51486;50.232;19.208;2023-07-13T18:40:48;3.97;;;1.70;;
64957;SDS011;51486;50.232;19.208;2023-07-13T18:43:34;2.10;;;1.30;;
64957;SDS011;51486;50.232;19.208;2023-07-13T18:49:08;2.63;;;1.70;;
64957;SDS011;51486;50.232;19.208;2023-07-13T18:51:54;2.70;;;1.87;;
64957;SDS011;51486;50.232;19.208;2023-07-13T18:54:40;3.50;;;1.93;;
64957;SDS011;51486;50.232;19.208;2023-07-13T18:57:26;3.37;;;1.80;;
64957;SDS011;51486;50.232;19.208;2023-07-13T19:00:15;9.67;;;2.13;;
64957;SDS011;51486;50.232;19.208;2023-07-13T19:03:01;2.57;;;1.93;;
64957;SDS011;51486;50.232;19.208;2023-07-13T19:05:48;9.63;;;2.63;;
64957;SDS011;51486;50.232;19.208;2023-07-13T19:08:40;8.70;;;2.43;;
64957;SDS011;51486;50.232;19.208;2023-07-13T19:11:27;4.03;;;2.57;;
64957;SDS011;51486;50.232;19.208;2023-07-13T19:14:14;5.33;;;2.97;;
64957;SDS011;51486;50.232;19.208;2023-07-13T19:17:02;2.77;;;2.20;;
64957;SDS011;51486;50.232;19.208;2023-07-13T19:19:48;4.33;;;2.23;;
64957;SDS011;51486;50.232;19.208;2023-07-13T19:22:34;13.40;;;2.97;;
64957;SDS011;51486;50.232;19.208;2023-07-13T19:25:22;6.43;;;3.30;;
64957;SDS011;51486;50.232;19.208;2023-07-13T19:28:42;5.37;;;2.70;;
64957;SDS011;51486;50.232;19.208;2023-07-13T19:31:26;7.83;;;3.20;;
64957;SDS011;51486;50.232;19.208;2023-07-13T19:37:08;5.60;;;2.43;;
64957;SDS011;51486;50.232;19.208;2023-07-13T19:40:03;6.20;;;3.33;;
64957;SDS011;51486;50.232;19.208;2023-07-13T19:42:51;5.57;;;3.23;;
64957;SDS011;51486;50.232;19.208;2023-07-13T19:45:37;4.53;;;3.00;;
64957;SDS011;51486;50.232;19.208;2023-07-13T19:48:23;6.43;;;3.63;;
64957;SDS011;51486;50.232;19.208;2023-07-13T19:51:09;5.23;;;3.60;;
64957;SDS011;51486;50.232;19.208;2023-07-13T19:54:03;6.03;;;2.87;;
64957;SDS011;51486;50.232;19.208;2023-07-13T19:56:55;7.57;;;4.03;;
64957;SDS011;51486;50.232;19.208;2023-07-13T19:59:40;7.23;;;4.33;;
64957;SDS011;51486;50.232;19.208;2023-07-13T20:02:26;10.10;;;4.47;;
64957;SDS011;51486;50.232;19.208;2023-07-13T20:05:13;6.60;;;4.20;;
64957;SDS011;51486;50.232;19.208;2023-07-13T20:08:02;7.33;;;4.40;;
64957;SDS011;51486;50.232;19.208;2023-07-13T20:10:55;8.17;;;4.20;;
64957;SDS011;51486;50.232;19.208;2023-07-13T20:13:41;14.07;;;5.57;;
64957;SDS011;51486;50.232;19.208;2023-07-13T20:16:27;9.33;;;4.67;;
64957;SDS011;51486;50.232;19.208;2023-07-13T20:19:13;7.73;;;4.53;;
64957;SDS011;51486;50.232;19.208;2023-07-13T20:22:04;13.57;;;5.10;;
64957;SDS011;51486;50.232;19.208;2023-07-13T20:24:49;10.50;;;5.10;;
64957;SDS011;51486;50.232;19.208;2023-07-13T20:27:35;7.33;;;4.97;;
64957;SDS011;51486;50.232;19.208;2023-07-13T20:30:21;11.60;;;5.30;;
64957;SDS011;51486;50.232;19.208;2023-07-13T20:33:11;10.53;;;5.03;;
64957;SDS011;51486;50.232;19.208;2023-07-13T20:36:01;8.73;;;4.43;;
64957;SDS011;51486;50.232;19.208;2023-07-13T20:38:48;9.40;;;5.17;;
64957;SDS011;51486;50.232;19.208;2023-07-13T20:41:34;15.27;;;6.00;;
64957;SDS011;51486;50.232;19.208;2023-07-13T20:44:20;11.67;;;5.20;;
64957;SDS011;51486;50.232;19.208;2023-07-13T20:47:07;11.53;;;5.87;;
64957;SDS011;51486;50.232;19.208;2023-07-13T20:49:57;12.13;;;5.37;;
64957;SDS011;51486;50.232;19.208;2023-07-13T20:52:43;11.13;;;5.80;;
64957;SDS011;51486;50.232;19.208;2023-07-13T20:55:33;10.03;;;6.43;;
64957;SDS011;51486;50.232;19.208;2023-07-13T20:58:20;15.20;;;6.67;;
64957;SDS011;51486;50.232;19.208;2023-07-13T21:01:18;10.07;;;6.47;;
64957;SDS011;51486;50.232;19.208;2023-07-13T21:04:11;15.37;;;5.47;;
64957;SDS011;51486;50.232;19.208;2023-07-13T21:06:58;13.77;;;6.90;;
64957;SDS011;51486;50.232;19.208;2023-07-13T21:09:44;13.60;;;5.47;;
64957;SDS011;51486;50.232;19.208;2023-07-13T21:12:30;9.43;;;4.93;;
64957;SDS011;51486;50.232;19.208;2023-07-13T21:15:17;8.43;;;5.40;;
64957;SDS011;51486;50.232;19.208;2023-07-13T21:18:04;8.77;;;4.87;;
64957;SDS011;51486;50.232;19.208;2023-07-13T21:20:53;6.63;;;4.40;;
64957;SDS011;51486;50.232;19.208;2023-07-13T21:23:40;8.83;;;5.47;;
64957;SDS011;51486;50.232;19.208;2023-07-13T21:26:26;11.27;;;5.80;;
64957;SDS011;51486;50.232;19.208;2023-07-13T21:29:12;9.40;;;5.30;;
64957;SDS011;51486;50.232;19.208;2023-07-13T21:31:58;9.40;;;4.73;;
64957;SDS011;51486;50.232;19.208;2023-07-13T21:34:44;8.20;;;4.90;;
64957;SDS011;51486;50.232;19.208;2023-07-13T21:37:30;9.40;;;5.30;;
64957;SDS011;51486;50.232;19.208;2023-07-13T21:40:16;13.17;;;4.70;;
64957;SDS011;51486;50.232;19.208;2023-07-13T21:43:04;9.60;;;5.30;;
64957;SDS011;51486;50.232;19.208;2023-07-13T21:45:54;9.13;;;4.70;;
64957;SDS011;51486;50.232;19.208;2023-07-13T21:48:39;7.87;;;5.43;;
64957;SDS011;51486;50.232;19.208;2023-07-13T21:51:26;10.17;;;5.00;;
64957;SDS011;51486;50.232;19.208;2023-07-13T21:54:16;8.13;;;5.00;;
64957;SDS011;51486;50.232;19.208;2023-07-13T21:57:05;6.17;;;4.23;;
64957;SDS011;51486;50.232;19.208;2023-07-13T21:59:57;10.53;;;5.73;;
64957;SDS011;51486;50.232;19.208;2023-07-13T22:02:43;10.60;;;5.33;;
64957;SDS011;51486;50.232;19.208;2023-07-13T22:05:29;10.27;;;5.30;;
64957;SDS011;51486;50.232;19.208;2023-07-13T22:08:15;8.40;;;4.73;;
64957;SDS011;51486;50.232;19.208;2023-07-13T22:11:12;7.37;;;4.90;;
64957;SDS011;51486;50.232;19.208;2023-07-13T22:13:59;11.13;;;5.33;;
64957;SDS011;51486;50.232;19.208;2023-07-13T22:16:44;10.07;;;5.27;;
64957;SDS011;51486;50.232;19.208;2023-07-13T22:19:31;10.80;;;5.60;;
64957;SDS011;51486;50.232;19.208;2023-07-13T22:22:17;16.53;;;5.57;;
64957;SDS011;51486;50.232;19.208;2023-07-13T22:25:03;7.43;;;5.07;;
64957;SDS011;51486;50.232;19.208;2023-07-13T22:27:49;8.93;;;5.13;;
64957;SDS011;51486;50.232;19.208;2023-07-13T22:30:35;11.07;;;5.70;;
64957;SDS011;51486;50.232;19.208;2023-07-13T22:33:21;7.03;;;4.60;;
64957;SDS011;51486;50.232;19.208;2023-07-13T22:36:11;6.33;;;4.60;;
64957;SDS011;51486;50.232;19.208;2023-07-13T22:38:58;10.50;;;5.27;;
64957;SDS011;51486;50.232;19.208;2023-07-13T22:41:43;10.70;;;5.13;;
64957;SDS011;51486;50.232;19.208;2023-07-13T22:44:29;8.07;;;4.53;;
64957;SDS011;51486;50.232;19.208;2023-07-13T22:47:15;7.77;;;4.87;;
64957;SDS011;51486;50.232;19.208;2023-07-13T22:50:01;9.97;;;5.27;;
64957;SDS011;51486;50.232;19.208;2023-07-13T22:52:53;10.23;;;6.20;;
64957;SDS011;51486;50.232;19.208;2023-07-13T22:55:39;8.50;;;5.13;;
64957;SDS011;51486;50.232;19.208;2023-07-13T22:58:25;10.23;;;5.43;;
64957;SDS011;51486;50.232;19.208;2023-07-13T23:01:22;13.33;;;6.10;;
64957;SDS011;51486;50.232;19.208;2023-07-13T23:04:42;9.93;;;6.00;;
64957;SDS011;51486;50.232;19.208;2023-07-13T23:07:21;6.93;;;4.70;;
64957;SDS011;51486;50.232;19.208;2023-07-13T23:10:13;12.60;;;6.57;;
64957;SDS011;51486;50.232;19.208;2023-07-13T23:13:00;8.67;;;5.80;;
64957;SDS011;51486;50.232;19.208;2023-07-13T23:15:47;9.97;;;6.77;;
64957;SDS011;51486;50.232;19.208;2023-07-13T23:18:35;11.03;;;6.60;;
64957;SDS011;51486;50.232;19.208;2023-07-13T23:21:21;11.03;;;6.67;;
64957;SDS011;51486;50.232;19.208;2023-07-13T23:24:11;13.93;;;6.60;;
64957;SDS011;51486;50.232;19.208;2023-07-13T23:26:58;11.53;;;6.97;;
64957;SDS011;51486;50.232;19.208;2023-07-13T23:29:43;20.10;;;6.90;;
64957;SDS011;51486;50.232;19.208;2023-07-13T23:32:30;14.17;;;7.53;;
64957;SDS011;51486;50.232;19.208;2023-07-13T23:35:17;12.60;;;6.63;;
64957;SDS011;51486;50.232;19.208;2023-07-13T23:38:03;9.60;;;6.27;;
64957;SDS011;51486;50.232;19.208;2023-07-13T23:40:49;11.03;;;6.43;;
64957;SDS011;51486;50.232;19.208;2023-07-13T23:43:35;11.90;;;6.50;;
64957;SDS011;51486;50.232;19.208;2023-07-13T23:49:31;16.90;;;7.13;;
64957;SDS011;51486;50.232;19.208;2023-07-13T23:52:17;11.20;;;6.40;;
64957;SDS011;51486;50.232;19.208;2023-07-13T23:55:10;10.30;;;6.20;;
64957;SDS011;51486;50.232;19.208;2023-07-13T23:58:04;16.00;;;7.10;;
